createdAt,value
2023-02-01T00:00:35.752Z,52498.53
2023-02-01T00:03:09.702Z,52495.71
2023-02-01T00:05:40.865Z,52485.27
2023-02-01T00:08:12.801Z,52496.92
2023-02-01T00:10:44.216Z,52495.31
2023-02-01T00:13:16.052Z,52496.52
2023-02-01T00:15:47.479Z,52491.29
2023-02-01T00:18:18.667Z,52491.29
2023-02-01T00:20:49.990Z,52493.30
2023-02-01T00:23:21.151Z,52482.05
2023-02-01T00:25:52.606Z,52484.05
2023-02-01T00:28:23.831Z,52496.92
2023-02-01T00:30:59.975Z,52490.09
2023-02-01T00:33:31.431Z,52479.24
2023-02-01T00:36:03.243Z,52480.45
2023-02-01T00:38:34.773Z,52499.33
2023-02-01T00:41:06.595Z,52485.26
2023-02-01T00:43:38.293Z,52500.54
2023-02-01T00:46:09.571Z,52506.56
2023-02-01T00:48:42.122Z,52494.91
2023-02-01T00:51:14.399Z,52501.34
2023-02-01T00:53:45.841Z,52508.98
2023-02-01T00:56:17.998Z,52496.92
2023-02-01T00:58:49.562Z,52491.29
2023-02-01T01:01:21.971Z,52484.06
2023-02-01T01:03:53.777Z,52493.71
2023-02-01T01:06:26.161Z,52478.03
2023-02-01T01:08:59.285Z,52488.48
2023-02-01T01:11:31.615Z,52501.74
2023-02-01T01:14:02.777Z,52512.19
2023-02-01T01:16:34.705Z,52502.55
2023-02-01T01:19:06.630Z,52500.13
2023-02-01T01:21:37.971Z,52500.53
2023-02-01T01:24:09.457Z,52510.18
2023-02-01T01:26:41.111Z,52502.14
2023-02-01T01:29:13.093Z,52487.68
2023-02-01T01:31:44.778Z,52490.09
2023-02-01T01:34:15.835Z,52484.06
2023-02-01T01:36:47.246Z,52479.24
2023-02-01T01:39:18.531Z,52496.52
2023-02-01T01:41:50.354Z,52488.48
2023-02-01T01:44:43.614Z,52500.95
2023-02-01T01:47:15.465Z,52491.70
2023-02-01T01:49:46.818Z,52492.10
2023-02-01T01:52:18.204Z,52494.51
2023-02-01T01:54:49.925Z,52498.13
2023-02-01T01:57:22.082Z,52488.07
2023-02-01T01:59:55.732Z,52515.41
2023-02-01T02:02:27.223Z,52490.09
2023-02-01T02:04:58.525Z,52492.10
2023-02-01T02:07:31.043Z,52506.56
2023-02-01T02:10:07.126Z,52473.21
2023-02-01T02:12:38.797Z,52484.86
2023-02-01T02:15:11.479Z,52502.54
2023-02-01T02:17:45.048Z,52489.28
2023-02-01T02:20:22.187Z,52487.68
2023-02-01T02:23:28.042Z,52482.85
2023-02-01T02:26:15.535Z,52483.26
2023-02-01T02:28:59.396Z,52470.80
2023-02-01T02:31:42.414Z,52503.35
2023-02-01T02:34:15.816Z,52498.13
2023-02-01T02:36:50.727Z,52488.08
2023-02-01T02:39:23.536Z,52504.96
2023-02-01T02:42:14.091Z,52474.01
2023-02-01T02:45:05.723Z,52491.29
2023-02-01T02:47:38.899Z,52500.14
2023-02-01T02:50:30.255Z,52510.18
2023-02-01T02:53:20.940Z,52498.13
2023-02-01T02:55:51.911Z,52495.31
2023-02-01T02:58:41.251Z,52491.70
2023-02-01T03:01:30.612Z,52490.89
2023-02-01T03:04:10.104Z,52501.74
2023-02-01T03:06:43.396Z,52504.55
2023-02-01T03:09:16.505Z,52504.55
2023-02-01T03:12:08.728Z,52499.73
2023-02-01T03:14:41.754Z,52502.55
2023-02-01T03:17:14.458Z,52480.84
2023-02-01T03:19:49.880Z,52479.24
2023-02-01T03:22:21.045Z,52473.21
2023-02-01T03:24:55.557Z,52488.48
2023-02-01T03:27:27.197Z,52475.62
2023-02-01T03:29:59.068Z,52476.82
2023-02-01T03:32:30.622Z,52492.50
2023-02-01T03:35:05.648Z,52494.10
2023-02-01T03:37:37.055Z,52480.84
2023-02-01T03:40:13.652Z,52490.09
2023-02-01T03:42:48.801Z,52500.53
2023-02-01T03:45:21.585Z,52476.02
2023-02-01T03:47:55.079Z,52502.95
2023-02-01T03:50:27.582Z,52480.04
2023-02-01T03:52:59.207Z,52482.05
2023-02-01T03:55:31.186Z,52482.45
2023-02-01T03:58:04.562Z,52505.76
2023-02-01T04:00:35.973Z,52498.93
2023-02-01T04:03:08.224Z,52504.96
2023-02-01T04:05:39.534Z,52499.33
2023-02-01T04:08:11.925Z,52494.10
2023-02-01T04:10:48.880Z,52496.92
2023-02-01T04:13:21.814Z,52499.33
2023-02-01T04:15:53.243Z,52498.13
2023-02-01T04:18:24.494Z,52502.54
2023-02-01T04:20:55.948Z,52488.48
2023-02-01T04:23:27.113Z,52494.11
2023-02-01T04:25:58.433Z,52505.76
2023-02-01T04:28:29.656Z,52510.59
2023-02-01T04:31:01.279Z,52491.70
2023-02-01T04:33:33.159Z,52505.36
2023-02-01T04:36:04.489Z,52508.18
2023-02-01T04:38:36.899Z,52500.14
2023-02-01T04:41:08.788Z,52505.36
2023-02-01T04:43:40.501Z,52517.01
2023-02-01T04:46:11.507Z,52505.76
2023-02-01T04:48:43.110Z,52498.13
2023-02-01T04:51:16.343Z,52503.35
2023-02-01T04:53:47.649Z,52495.71
2023-02-01T04:56:18.957Z,52488.48
2023-02-01T04:58:50.074Z,52479.24
2023-02-01T05:01:21.266Z,52488.48
2023-02-01T05:03:55.015Z,52504.96
2023-02-01T05:06:26.087Z,52505.76
2023-02-01T05:08:57.314Z,52491.70
2023-02-01T05:11:46.420Z,52502.54
2023-02-01T05:14:19.552Z,52511.39
2023-02-01T05:16:50.857Z,52505.76
2023-02-01T05:19:21.942Z,52501.74
2023-02-01T05:21:53.477Z,52491.70
2023-02-01T05:24:24.920Z,52494.51
2023-02-01T05:27:00.323Z,52506.16
2023-02-01T05:29:31.987Z,52480.04
2023-02-01T05:32:20.571Z,52490.49
2023-02-01T05:34:53.431Z,52499.73
2023-02-01T05:37:25.722Z,52494.91
2023-02-01T05:39:56.901Z,52489.29
2023-02-01T05:42:27.992Z,52497.73
2023-02-01T05:45:00.365Z,52494.51
2023-02-01T05:47:31.897Z,52482.86
2023-02-01T05:50:07.168Z,52490.89
2023-02-01T05:52:39.290Z,52515.01
2023-02-01T05:55:11.111Z,52499.73
2023-02-01T05:57:43.235Z,52498.52
2023-02-01T06:00:15.832Z,52491.29
2023-02-01T06:02:47.821Z,52492.10
2023-02-01T06:05:19.438Z,52486.07
2023-02-01T06:07:51.797Z,52500.14
2023-02-01T06:10:23.414Z,52480.04
2023-02-01T06:12:55.291Z,52492.90
2023-02-01T06:15:26.546Z,52496.52
2023-02-01T06:17:57.411Z,52499.74
2023-02-01T06:20:28.427Z,52485.66
2023-02-01T06:23:00.551Z,52487.68
2023-02-01T06:25:31.684Z,52496.92
2023-02-01T06:28:07.149Z,52485.67
2023-02-01T06:30:42.246Z,52490.89
2023-02-01T06:33:13.468Z,52482.86
2023-02-01T06:35:48.380Z,52500.14
2023-02-01T06:38:19.872Z,52482.05
2023-02-01T06:40:54.163Z,52490.09
2023-02-01T06:43:25.316Z,52488.48
2023-02-01T06:46:01.127Z,52494.51
2023-02-01T06:48:32.814Z,52490.09
2023-02-01T06:51:04.371Z,52481.65
2023-02-01T06:53:36.652Z,52484.06
2023-02-01T06:56:08.866Z,52484.86
2023-02-01T06:58:40.649Z,52476.43
2023-02-01T07:01:11.919Z,52485.26
2023-02-01T07:03:43.272Z,52472.00
2023-02-01T07:06:14.302Z,52479.24
2023-02-01T07:08:47.386Z,52481.24
2023-02-01T07:11:21.670Z,52479.23
2023-02-01T07:13:52.884Z,52482.05
2023-02-01T07:16:24.153Z,52485.66
2023-02-01T07:18:55.659Z,52482.85
2023-02-01T07:21:29.042Z,52488.88
2023-02-01T07:24:00.433Z,52502.14
2023-02-01T07:26:32.001Z,52496.92
2023-02-01T07:29:03.158Z,52492.09
2023-02-01T07:31:34.250Z,52485.26
2023-02-01T07:34:05.884Z,52474.41
2023-02-01T07:36:37.817Z,52492.90
2023-02-01T07:39:09.267Z,52484.05
2023-02-01T07:41:41.865Z,52502.14
2023-02-01T07:44:13.535Z,52477.63
2023-02-01T07:46:45.013Z,52492.10
2023-02-01T07:49:18.680Z,52493.71
2023-02-01T07:51:51.222Z,52490.89
2023-02-01T07:54:22.869Z,52483.25
2023-02-01T07:56:54.337Z,52484.86
2023-02-01T07:59:25.714Z,52486.07
2023-02-01T08:01:56.835Z,52476.02
2023-02-01T08:04:28.127Z,52481.64
2023-02-01T08:06:59.095Z,52483.66
2023-02-01T08:09:32.318Z,52495.71
2023-02-01T08:12:03.789Z,52490.89
2023-02-01T08:14:34.980Z,52490.49
2023-02-01T08:17:06.558Z,52475.63
2023-02-01T08:19:37.991Z,52486.07
2023-02-01T08:22:09.292Z,52485.26
2023-02-01T08:24:41.725Z,52468.38
2023-02-01T08:27:14.134Z,52483.26
2023-02-01T08:29:46.076Z,52499.33
2023-02-01T08:32:17.411Z,52471.20
2023-02-01T08:34:49.011Z,52478.44
2023-02-01T08:37:20.002Z,52473.21
2023-02-01T08:39:52.013Z,52484.06
2023-02-01T08:42:40.711Z,52471.20
2023-02-01T08:45:12.611Z,52494.11
2023-02-01T08:47:44.285Z,52483.26
2023-02-01T08:50:15.649Z,52474.41
2023-02-01T08:52:47.364Z,52478.03
2023-02-01T08:55:19.695Z,52485.27
2023-02-01T08:57:52.453Z,52461.15
2023-02-01T09:00:25.295Z,52470.39
2023-02-01T09:02:58.237Z,52451.91
2023-02-01T09:05:40.683Z,52467.18
2023-02-01T09:08:20.420Z,52453.91
2023-02-01T09:10:52.555Z,52437.44
2023-02-01T09:13:25.992Z,52439.05
2023-02-01T09:16:01.171Z,52431.81
2023-02-01T09:18:32.747Z,52439.85
2023-02-01T09:21:08.075Z,52452.71
2023-02-01T09:23:39.675Z,52441.05
2023-02-01T09:26:15.031Z,52441.86
2023-02-01T09:28:46.448Z,52469.59
2023-02-01T09:31:18.030Z,52434.63
2023-02-01T09:33:49.239Z,52461.55
2023-02-01T09:36:21.055Z,52454.32
2023-02-01T09:38:53.321Z,52447.89
2023-02-01T09:41:28.613Z,52455.52
2023-02-01T09:44:02.227Z,52448.70
2023-02-01T09:46:34.018Z,52446.69
2023-02-01T09:49:06.384Z,52453.92
2023-02-01T09:51:40.032Z,52458.74
2023-02-01T09:54:17.770Z,52435.02
2023-02-01T09:56:52.534Z,52441.46
2023-02-01T09:59:29.215Z,52452.71
2023-02-01T10:02:01.853Z,52446.28
2023-02-01T10:04:36.353Z,52420.16
2023-02-01T10:07:12.296Z,52450.30
2023-02-01T10:09:50.643Z,52449.90
2023-02-01T10:12:40.248Z,52431.82
2023-02-01T10:15:18.024Z,52427.39
2023-02-01T10:17:52.591Z,52445.07
2023-02-01T10:20:29.888Z,52437.45
2023-02-01T10:23:26.890Z,52467.98
2023-02-01T10:26:03.380Z,52452.31
2023-02-01T10:28:38.007Z,52459.54
2023-02-01T10:31:09.877Z,52455.13
2023-02-01T10:33:44.475Z,52461.96
2023-02-01T10:36:22.849Z,52461.55
2023-02-01T10:38:55.014Z,52469.59
2023-02-01T10:41:33.246Z,52465.57
2023-02-01T10:44:07.880Z,52471.20
2023-02-01T10:46:42.295Z,52487.68
2023-02-01T10:49:16.726Z,52469.19
2023-02-01T10:51:50.096Z,52505.36
2023-02-01T10:54:21.851Z,52498.93
2023-02-01T10:56:54.598Z,52501.74
2023-02-01T10:59:28.157Z,52506.56
2023-02-01T11:02:02.681Z,52506.96
2023-02-01T11:04:35.074Z,52510.18
2023-02-01T11:07:10.693Z,52486.47
2023-02-01T11:09:42.988Z,52508.18
2023-02-01T11:12:25.489Z,52486.88
2023-02-01T11:14:59.184Z,52502.95
2023-02-01T11:17:31.138Z,52508.98
2023-02-01T11:20:02.762Z,52499.73
2023-02-01T11:22:34.280Z,52486.47
2023-02-01T11:25:09.930Z,52504.96
2023-02-01T11:27:53.060Z,52508.18
2023-02-01T11:30:29.207Z,52505.36
2023-02-01T11:33:00.367Z,52504.16
2023-02-01T11:35:31.975Z,52515.41
2023-02-01T11:38:04.195Z,52512.59
2023-02-01T11:40:39.183Z,52525.86
2023-02-01T11:43:14.572Z,52506.57
2023-02-01T11:45:46.630Z,52513.80
2023-02-01T11:48:26.520Z,52515.41
2023-02-01T11:51:05.800Z,52523.04
2023-02-01T11:53:41.422Z,52501.74
2023-02-01T11:56:14.952Z,52521.84
2023-02-01T11:59:00.427Z,52520.23
2023-02-01T12:01:38.878Z,52500.14
2023-02-01T12:04:36.660Z,52513.80
2023-02-01T12:07:08.334Z,52514.20
2023-02-01T12:09:43.394Z,52494.51
2023-02-01T12:12:17.597Z,52515.81
2023-02-01T12:15:05.450Z,52510.98
2023-02-01T12:17:49.964Z,52523.04
2023-02-01T12:20:27.087Z,52509.78
2023-02-01T12:23:01.994Z,52522.64
2023-02-01T12:25:39.198Z,52516.21
2023-02-01T12:28:20.353Z,52504.55
2023-02-01T12:31:14.693Z,52519.02
2023-02-01T12:33:53.385Z,52510.99
2023-02-01T12:36:27.714Z,52526.26
2023-02-01T12:39:00.533Z,52505.76
2023-02-01T12:41:45.824Z,52508.18
2023-02-01T12:44:19.429Z,52517.42
2023-02-01T12:46:51.693Z,52518.22
2023-02-01T12:49:26.746Z,52521.03
2023-02-01T12:52:05.195Z,52520.63
2023-02-01T12:54:37.931Z,52516.21
2023-02-01T12:57:11.642Z,52531.89
2023-02-01T12:59:44.347Z,52531.89
2023-02-01T13:02:17.065Z,52528.27
2023-02-01T13:04:51.388Z,52510.18
2023-02-01T13:07:23.643Z,52512.99
2023-02-01T13:09:56.139Z,52513.40
2023-02-01T13:12:28.296Z,52499.33
2023-02-01T13:15:00.508Z,52512.99
2023-02-01T13:17:33.395Z,52513.79
2023-02-01T13:20:05.774Z,52516.61
2023-02-01T13:22:37.418Z,52523.04
2023-02-01T13:25:13.624Z,52517.82
2023-02-01T13:27:46.165Z,52505.76
2023-02-01T13:30:21.193Z,52526.26
2023-02-01T13:33:53.308Z,52539.52
2023-02-01T13:36:18.468Z,52508.18
2023-02-01T13:39:04.368Z,52528.67
2023-02-01T13:41:37.942Z,52503.75
2023-02-01T13:44:21.992Z,52537.51
2023-02-01T13:46:53.439Z,52530.68
2023-02-01T13:49:25.899Z,52523.85
2023-02-01T13:51:57.389Z,52515.41
2023-02-01T13:54:30.133Z,52539.93
2023-02-01T13:57:02.160Z,52511.39
2023-02-01T13:59:40.181Z,52525.46
2023-02-01T14:02:28.665Z,52523.04
2023-02-01T14:05:00.115Z,52534.29
2023-02-01T14:07:31.342Z,52535.50
2023-02-01T14:10:09.879Z,52512.59
2023-02-01T14:12:46.652Z,52526.66
2023-02-01T14:15:27.698Z,52519.82
2023-02-01T14:17:59.690Z,52524.25
2023-02-01T14:20:54.632Z,52526.66
2023-02-01T14:23:26.733Z,52529.07
2023-02-01T14:26:04.930Z,52541.53
2023-02-01T14:28:36.652Z,52532.28
2023-02-01T14:31:17.669Z,52525.45
2023-02-01T14:33:49.266Z,52529.07
2023-02-01T14:36:20.498Z,52508.98
2023-02-01T14:38:52.249Z,52531.88
2023-02-01T14:41:31.450Z,52524.25
2023-02-01T14:44:17.703Z,52531.89
2023-02-01T14:47:06.227Z,52518.22
2023-02-01T14:49:39.954Z,52533.09
2023-02-01T14:52:12.616Z,52518.22
2023-02-01T14:54:45.703Z,52523.84
2023-02-01T14:57:18.502Z,52519.43
2023-02-01T14:59:50.074Z,52533.49
2023-02-01T15:02:23.194Z,52535.90
2023-02-01T15:04:56.898Z,52510.99
2023-02-01T15:07:31.145Z,52518.62
2023-02-01T15:10:02.695Z,52524.25
2023-02-01T15:12:34.191Z,52519.82
2023-02-01T15:15:15.082Z,52532.69
2023-02-01T15:17:51.234Z,52523.04
2023-02-01T15:20:23.927Z,52527.06
2023-02-01T15:22:56.374Z,52528.67
2023-02-01T15:25:28.400Z,52527.86
2023-02-01T15:28:00.042Z,52521.84
2023-02-01T15:30:31.874Z,52519.43
2023-02-01T15:33:10.306Z,52512.59
2023-02-01T15:35:44.736Z,52508.98
2023-02-01T15:38:32.035Z,52531.88
2023-02-01T15:41:03.802Z,52521.84
2023-02-01T15:43:35.966Z,52530.68
2023-02-01T15:46:10.246Z,52515.01
2023-02-01T15:48:47.771Z,52520.63
2023-02-01T15:51:20.659Z,52533.89
2023-02-01T15:53:53.067Z,52517.41
2023-02-01T15:56:25.657Z,52528.27
2023-02-01T15:58:57.574Z,52522.24
2023-02-01T16:01:28.508Z,52526.26
2023-02-01T16:04:06.678Z,52527.46
2023-02-01T16:06:40.152Z,52515.81
2023-02-01T16:09:14.916Z,52505.76
2023-02-01T16:11:52.599Z,52514.20
2023-02-01T16:14:24.822Z,52506.57
2023-02-01T16:16:56.427Z,52510.18
2023-02-01T16:19:29.704Z,52504.16
2023-02-01T16:22:01.290Z,52519.82
2023-02-01T16:24:33.764Z,52516.61
2023-02-01T16:27:08.623Z,52496.11
2023-02-01T16:29:43.259Z,52506.56
2023-02-01T16:32:19.613Z,52518.22
2023-02-01T16:34:54.862Z,52513.80
2023-02-01T16:37:26.113Z,52502.14
2023-02-01T16:39:57.263Z,52520.63
2023-02-01T16:42:31.921Z,52515.00
2023-02-01T16:45:03.132Z,52531.08
2023-02-01T16:47:35.206Z,52523.85
2023-02-01T16:50:22.855Z,52517.02
2023-02-01T16:52:54.516Z,52515.00
2023-02-01T16:55:27.238Z,52517.82
2023-02-01T16:58:01.197Z,52515.00
2023-02-01T17:00:37.967Z,52535.10
2023-02-01T17:03:09.139Z,52519.43
2023-02-01T17:05:40.208Z,52527.46
2023-02-01T17:08:12.213Z,52527.06
2023-02-01T17:10:43.658Z,52521.44
2023-02-01T17:13:15.069Z,52531.48
2023-02-01T17:15:48.350Z,52512.20
2023-02-01T17:18:19.514Z,52518.22
2023-02-01T17:20:52.517Z,52520.23
2023-02-01T17:23:24.248Z,52528.27
2023-02-01T17:25:55.415Z,52544.74
2023-02-01T17:28:30.687Z,52530.27
2023-02-01T17:31:02.087Z,52514.60
2023-02-01T17:33:35.732Z,52531.89
2023-02-01T17:36:08.496Z,52532.29
2023-02-01T17:38:39.936Z,52524.25
2023-02-01T17:41:13.637Z,52522.64
2023-02-01T17:43:44.949Z,52525.05
2023-02-01T17:46:16.909Z,52525.05
2023-02-01T17:48:48.032Z,52512.59
2023-02-01T17:51:21.572Z,52519.02
2023-02-01T17:53:53.458Z,52510.58
2023-02-01T17:56:25.653Z,52525.86
2023-02-01T17:58:57.104Z,52513.39
2023-02-01T18:01:28.644Z,52519.83
2023-02-01T18:04:00.472Z,52519.02
2023-02-01T18:06:32.065Z,52523.85
2023-02-01T18:09:03.331Z,52539.93
2023-02-01T18:11:35.023Z,52526.26
2023-02-01T18:14:06.288Z,52520.63
2023-02-01T18:16:38.169Z,52525.45
2023-02-01T18:19:10.359Z,52521.84
2023-02-01T18:21:42.537Z,52529.88
2023-02-01T18:24:14.584Z,52521.03
2023-02-01T18:26:46.239Z,52525.05
2023-02-01T18:29:17.738Z,52519.02
2023-02-01T18:31:50.681Z,52514.20
2023-02-01T18:34:25.137Z,52526.26
2023-02-01T18:36:56.081Z,52518.63
2023-02-01T18:39:27.355Z,52527.87
2023-02-01T18:41:58.500Z,52524.25
2023-02-01T18:44:29.755Z,52533.49
2023-02-01T18:47:02.599Z,52529.88
2023-02-01T18:49:37.673Z,52520.23
2023-02-01T18:52:09.373Z,52530.27
2023-02-01T18:54:53.771Z,52536.71
2023-02-01T18:57:30.135Z,52521.44
2023-02-01T19:00:01.184Z,52523.04
2023-02-01T19:02:32.756Z,52521.03
2023-02-01T19:05:05.507Z,52530.27
2023-02-01T19:07:37.224Z,52523.04
2023-02-01T19:10:10.640Z,52531.48
2023-02-01T19:12:42.137Z,52533.89
2023-02-01T19:15:16.967Z,52535.10
2023-02-01T19:17:49.839Z,52533.09
2023-02-01T19:20:21.463Z,52523.45
2023-02-01T19:22:53.037Z,52528.67
2023-02-01T19:25:27.122Z,52522.64
2023-02-01T19:27:58.658Z,52521.44
2023-02-01T19:30:29.868Z,52537.51
2023-02-01T19:33:02.973Z,52535.10
2023-02-01T19:35:35.420Z,52531.48
2023-02-01T19:38:06.413Z,52539.93
2023-02-01T19:40:38.672Z,52530.28
2023-02-01T19:43:09.757Z,52529.48
2023-02-01T19:45:41.285Z,52523.45
2023-02-01T19:48:13.834Z,52529.48
2023-02-01T19:50:45.978Z,52538.31
2023-02-01T19:53:17.369Z,52516.61
2023-02-01T19:55:48.680Z,52529.48
2023-02-01T19:58:20.679Z,52517.01
2023-02-01T20:00:52.742Z,52510.58
2023-02-01T20:03:24.696Z,52505.76
2023-02-01T20:05:56.598Z,52521.44
2023-02-01T20:08:28.350Z,52530.68
2023-02-01T20:10:59.490Z,52535.90
2023-02-01T20:13:30.673Z,52535.10
2023-02-01T20:16:01.757Z,52523.45
2023-02-01T20:18:34.154Z,52517.42
2023-02-01T20:21:05.699Z,52519.02
2023-02-01T20:23:37.505Z,52527.06
2023-02-01T20:26:10.014Z,52535.10
2023-02-01T20:28:41.779Z,52546.35
2023-02-01T20:31:12.906Z,52525.05
2023-02-01T20:33:44.154Z,52534.30
2023-02-01T20:36:15.755Z,52522.24
2023-02-01T20:38:47.265Z,52532.69
2023-02-01T20:41:18.640Z,52531.08
2023-02-01T20:43:49.806Z,52537.11
2023-02-01T20:46:20.934Z,52536.30
2023-02-01T20:48:52.315Z,52542.33
2023-02-01T20:51:23.474Z,52533.89
2023-02-01T20:53:55.200Z,52517.42
2023-02-01T20:56:26.752Z,52521.84
2023-02-01T20:59:08.698Z,52536.30
2023-02-01T21:01:53.161Z,52516.61
2023-02-01T21:04:27.618Z,52527.46
2023-02-01T21:06:59.093Z,52512.59
2023-02-01T21:09:31.296Z,52516.21
2023-02-01T21:12:02.848Z,52525.46
2023-02-01T21:14:34.709Z,52531.48
2023-02-01T21:17:06.040Z,52517.42
2023-02-01T21:19:43.186Z,52520.64
2023-02-01T21:22:14.571Z,52518.62
2023-02-01T21:24:45.924Z,52533.09
2023-02-01T21:27:17.017Z,52517.82
2023-02-01T21:29:48.178Z,52513.00
2023-02-01T21:32:19.947Z,52529.07
2023-02-01T21:34:51.010Z,52518.22
2023-02-01T21:37:25.792Z,52530.27
2023-02-01T21:39:57.640Z,52540.73
2023-02-01T21:42:30.775Z,52527.87
2023-02-01T21:45:02.728Z,52519.02
2023-02-01T21:47:34.513Z,52516.21
2023-02-01T21:50:05.697Z,52521.03
2023-02-01T21:52:39.455Z,52505.76
2023-02-01T21:55:11.308Z,52523.04
2023-02-01T21:57:42.598Z,52529.48
2023-02-01T22:00:15.358Z,52523.84
2023-02-01T22:02:46.752Z,52526.26
2023-02-01T22:05:18.400Z,52535.10
2023-02-01T22:07:49.341Z,52520.23
2023-02-01T22:10:20.660Z,52519.02
2023-02-01T22:13:11.506Z,52518.23
2023-02-01T22:15:42.674Z,52505.36
2023-02-01T22:18:14.111Z,52508.18
2023-02-01T22:20:47.466Z,52507.77
2023-02-01T22:23:18.450Z,52504.55
2023-02-01T22:25:49.476Z,52521.03
2023-02-01T22:28:30.455Z,52524.65
2023-02-01T22:31:04.538Z,52526.66
2023-02-01T22:33:35.695Z,52498.93
2023-02-01T22:36:08.100Z,52509.38
2023-02-01T22:38:39.169Z,52515.41
2023-02-01T22:41:10.477Z,52521.03
2023-02-01T22:46:19.644Z,52501.74
2023-02-01T22:48:52.588Z,52496.12
2023-02-01T22:51:24.372Z,52517.01
2023-02-01T22:53:58.274Z,52504.55
2023-02-01T22:56:31.828Z,52506.96
2023-02-01T22:59:03.430Z,52511.79
2023-02-01T23:01:34.886Z,52508.18
2023-02-01T23:04:08.963Z,52523.45
2023-02-01T23:06:41.837Z,52520.23
2023-02-01T23:09:17.423Z,52515.41
2023-02-01T23:11:48.548Z,52528.67
2023-02-01T23:14:20.744Z,52515.01
2023-02-01T23:16:52.151Z,52519.83
2023-02-01T23:19:23.804Z,52523.45
2023-02-01T23:21:55.235Z,52525.05
2023-02-01T23:24:27.009Z,52527.46
2023-02-01T23:26:58.264Z,52516.61
2023-02-01T23:29:29.493Z,52530.27
2023-02-01T23:32:01.219Z,52508.98
2023-02-01T23:34:32.652Z,52519.43
2023-02-01T23:37:03.944Z,52530.27
2023-02-01T23:39:35.781Z,52514.21
2023-02-01T23:42:07.143Z,52516.21
2023-02-01T23:44:38.174Z,52518.23
2023-02-01T23:47:09.328Z,52522.24
2023-02-01T23:49:40.971Z,52531.88
2023-02-01T23:52:12.260Z,52530.68
2023-02-01T23:54:43.337Z,52518.23
2023-02-01T23:57:14.751Z,52517.42
2023-02-01T23:59:46.259Z,52542.33
